Flomaton, Alabama
Current Conditions -  °F | °C
As of 5:56 PM on Monday 24 Nov 2014 (Local Time) from KNSE Reporting Station
Broken Clouds Broken Clouds  
Wind Chill: 64°   Ceiling: 9500
Heat Index: 64°   Visibility: 10mi
Dew Point: 62°   Wind: 3mph
Humidity: 93%   Direction: 170°S
Pressure: 29.91"   Gusts: NA
Location:  31°N, 87.26°W
Report Text: KNSE 242356Z 17003KT 10SM BKN095 BKN250 18/17 A2991 RMK AO2 SLP113 T01780167 10278 20178 53026 $
Loading
Personal Weather Stations






























Interactive Weather Map New forecast layout! Learn more

10-Day Weather Forecast

Advertisements
Track Severe Weather on mobile